INFORMAÇÕES METEOROLÓGICAS
METAR FOR SBQV
ADDS - METARS form results

(1057 UTC 18 July 2019)
Data provider http://aviationweather.gov/metar/data/
 
METAR text: SBQV 181000Z 16013KT 9999 BKN012 14/12 Q1025
Conditions at: SBQV (VITORIA DA CONQU, BR) observed 1000 UTC 18 July 2019
Temperature: 14.0°C (57°F)
Dewpoint: 12.0°C (54°F) [RH = 88%]
Pressure (altimeter): 30.27 inches Hg (1025.0 mb)
Winds: from the SSE (160 degrees) at 15 MPH (13 knots; 6.7 m/s)
Visibility: 6 or more miles (10+ km)
Ceiling: 1200 feet AGL
Clouds: broken clouds at 1200 feet AGL
Weather: no significant weather observed at this time

 MAPA DO AEROPORTO

 INFORMAÇÕES DA PISTA
Pista 15 Tamanho da pista 5823 ft Largura da pista 98 ft
Elevação da pista 0 ft Ranhura da pista 0 ft Proa da pista 0
Pista 33 Tamanho da pista 5823 ft Largura da pista 98 ft
Elevação da pista 0 ft Ranhura da pista 0 ft Proa da pista 0

 FREQUÊNCIAS DO AEROPORTO
Tipo AFIS Nome RDO Frequência 130.3 MHZ

 AUXÍLIOS DE NAVEGAÇÃO PRÓXIMOS AO AEROPORTO
Tipo NDB Nome Conquista Frequência 260 KHZ





Powered by Virtual Airlines Manager [v2.6.2]